Time,TemperatureF,DewpointF,PressureIn,WindDirection,WindDirectionDegrees,WindSpeedMPH,WindSpeedGustMPH,Humidity,HourlyPrecipIn,Conditions,Clouds,dailyrainin,SolarRadiationWatts/m^2,SoftwareType,DateUTC
2013-01-28 00:11:00,65.0,63.0,-100.00,East,101,5.0,9.0,92,0.11,,,-99.99,0.000000,,2013-01-28 10:11:00,
2013-01-28 00:21:00,65.0,63.0,-100.00,East,101,5.0,9.0,92,0.11,,,-99.99,0.000000,,2013-01-28 10:21:00,
2013-01-28 00:31:00,65.0,63.0,-100.00,East,101,5.0,9.0,92,0.11,,,-99.99,0.000000,,2013-01-28 10:31:00,
2013-01-28 00:41:00,65.0,63.0,-100.00,East,101,5.0,9.0,92,0.11,,,-99.99,0.000000,,2013-01-28 10:41:00,
2013-01-28 01:11:00,65.0,63.0,-100.00,SE,136,4.0,11.0,94,0.06,,,-99.99,0.000000,,2013-01-28 11:11:00,
2013-01-28 01:22:00,65.0,63.0,-100.00,SE,136,4.0,11.0,94,0.06,,,-99.99,0.000000,,2013-01-28 11:22:00,
2013-01-28 01:32:00,65.0,63.0,-100.00,SE,136,4.0,11.0,94,0.06,,,-99.99,0.000000,,2013-01-28 11:32:00,
2013-01-28 01:42:00,65.0,63.0,-100.00,SE,136,4.0,11.0,94,0.06,,,-99.99,0.000000,,2013-01-28 11:42:00,
2013-01-28 02:11:00,64.0,63.0,-100.00,SSE,168,5.0,9.0,95,0.13,,,-99.99,0.000000,,2013-01-28 12:11:00,
2013-01-28 02:23:00,64.0,63.0,-100.00,SSE,168,5.0,9.0,95,0.13,,,-99.99,0.000000,,2013-01-28 12:23:00,
2013-01-28 02:32:00,64.0,63.0,-100.00,SSE,168,5.0,9.0,95,0.13,,,-99.99,0.000000,,2013-01-28 12:32:00,
2013-01-28 02:42:00,64.0,63.0,-100.00,SSE,168,5.0,9.0,95,0.13,,,-99.99,0.000000,,2013-01-28 12:42:00,
2013-01-28 03:12:00,64.0,63.0,-100.00,SE,146,6.0,9.0,95,0.04,,,-99.99,0.000000,,2013-01-28 13:12:00,
2013-01-28 03:22:00,64.0,63.0,-100.00,SE,146,6.0,9.0,95,0.04,,,-99.99,0.000000,,2013-01-28 13:22:00,
2013-01-28 03:33:00,64.0,63.0,-100.00,SE,146,6.0,9.0,95,0.04,,,-99.99,0.000000,,2013-01-28 13:33:00,
2013-01-28 03:42:00,64.0,63.0,-100.00,SE,146,6.0,9.0,95,0.04,,,-99.99,0.000000,,2013-01-28 13:42:00,
2013-01-28 04:12:00,65.0,64.0,-100.00,SE,145,7.0,8.0,96,0.02,,,-99.99,0.000000,,2013-01-28 14:12:00,
2013-01-28 04:22:00,65.0,64.0,-100.00,SE,145,7.0,8.0,96,0.02,,,-99.99,0.000000,,2013-01-28 14:22:00,
2013-01-28 04:32:00,65.0,64.0,-100.00,SE,145,7.0,8.0,96,0.02,,,-99.99,0.000000,,2013-01-28 14:32:00,
2013-01-28 04:42:00,65.0,64.0,-100.00,SE,145,7.0,8.0,96,0.02,,,-99.99,0.000000,,2013-01-28 14:42:00,
2013-01-28 05:12:00,66.0,65.0,-100.00,SSE,162,5.0,9.0,96,0.00,,,-99.99,0.000000,,2013-01-28 15:12:00,
2013-01-28 05:23:00,66.0,65.0,-100.00,SSE,162,5.0,9.0,96,0.00,,,-99.99,0.000000,,2013-01-28 15:23:00,
2013-01-28 05:33:00,66.0,65.0,-100.00,SSE,162,5.0,9.0,96,0.00,,,-99.99,0.000000,,2013-01-28 15:33:00,
2013-01-28 05:42:00,66.0,65.0,-100.00,SSE,162,5.0,9.0,96,0.00,,,-99.99,0.000000,,2013-01-28 15:42:00,
2013-01-28 06:12:00,66.0,65.0,-100.00,SE,146,5.0,8.0,96,0.09,,,-99.99,0.000000,,2013-01-28 16:12:00,
2013-01-28 06:22:00,66.0,65.0,-100.00,SE,146,5.0,8.0,96,0.09,,,-99.99,0.000000,,2013-01-28 16:22:00,
2013-01-28 06:32:00,66.0,65.0,-100.00,SE,146,5.0,8.0,96,0.09,,,-99.99,0.000000,,2013-01-28 16:32:00,
2013-01-28 06:42:00,66.0,65.0,-100.00,SE,146,5.0,8.0,96,0.09,,,-99.99,0.000000,,2013-01-28 16:42:00,
2013-01-28 07:12:00,66.0,65.0,-100.00,ESE,120,6.0,8.0,96,0.05,,,-99.99,0.000000,,2013-01-28 17:12:00,
2013-01-28 07:22:00,66.0,65.0,-100.00,ESE,120,6.0,8.0,96,0.05,,,-99.99,0.000000,,2013-01-28 17:22:00,
2013-01-28 07:32:00,66.0,65.0,-100.00,ESE,120,6.0,8.0,96,0.05,,,-99.99,0.000000,,2013-01-28 17:32:00,
2013-01-28 07:41:00,66.0,65.0,-100.00,ESE,120,6.0,8.0,96,0.05,,,-99.99,0.000000,,2013-01-28 17:41:00,
2013-01-28 08:12:00,66.0,65.0,-100.00,SSE,160,4.0,8.0,97,0.03,,,-99.99,1.000000,,2013-01-28 18:12:00,
2013-01-28 08:23:00,66.0,65.0,-100.00,SSE,160,4.0,8.0,97,0.03,,,-99.99,1.000000,,2013-01-28 18:23:00,
2013-01-28 08:33:00,66.0,65.0,-100.00,SSE,160,4.0,8.0,97,0.03,,,-99.99,1.000000,,2013-01-28 18:33:00,
2013-01-28 08:42:00,66.0,65.0,-100.00,SSE,160,4.0,8.0,97,0.03,,,-99.99,1.000000,,2013-01-28 18:42:00,
2013-01-28 09:12:00,67.0,66.0,-100.00,North,11,11.0,14.0,97,0.36,,,-99.99,19.000000,,2013-01-28 19:12:00,
2013-01-28 09:22:00,67.0,66.0,-100.00,North,11,11.0,14.0,97,0.36,,,-99.99,19.000000,,2013-01-28 19:22:00,
2013-01-28 09:32:00,67.0,66.0,-100.00,North,11,11.0,14.0,97,0.36,,,-99.99,19.000000,,2013-01-28 19:32:00,
2013-01-28 09:42:00,67.0,66.0,-100.00,North,11,11.0,14.0,97,0.36,,,-99.99,19.000000,,2013-01-28 19:42:00,
2013-01-28 10:11:00,66.0,65.0,-100.00,NNE,26,14.0,21.0,96,0.11,,,-99.99,72.000000,,2013-01-28 20:11:00,
2013-01-28 10:21:00,66.0,65.0,-100.00,NNE,26,14.0,21.0,96,0.11,,,-99.99,72.000000,,2013-01-28 20:21:00,
2013-01-28 10:33:00,66.0,65.0,-100.00,NNE,26,14.0,21.0,96,0.11,,,-99.99,72.000000,,2013-01-28 20:33:00,
2013-01-28 10:42:00,66.0,65.0,-100.00,NNE,26,14.0,21.0,96,0.11,,,-99.99,72.000000,,2013-01-28 20:42:00,
2013-01-28 11:11:00,69.0,65.0,-100.00,NE,43,14.0,17.0,88,0.00,,,-99.99,189.000000,,2013-01-28 21:11:00,
2013-01-28 11:22:00,69.0,65.0,-100.00,NE,43,14.0,17.0,88,0.00,,,-99.99,189.000000,,2013-01-28 21:22:00,
2013-01-28 11:33:00,69.0,65.0,-100.00,NE,43,14.0,17.0,88,0.00,,,-99.99,189.000000,,2013-01-28 21:33:00,
2013-01-28 11:42:00,69.0,65.0,-100.00,NE,43,14.0,17.0,88,0.00,,,-99.99,189.000000,,2013-01-28 21:42:00,
2013-01-28 12:11:00,69.0,66.0,-100.00,NE,41,14.0,19.0,90,0.01,,,-99.99,280.000000,,2013-01-28 22:11:00,
2013-01-28 12:22:00,69.0,66.0,-100.00,NE,41,14.0,19.0,90,0.01,,,-99.99,280.000000,,2013-01-28 22:22:00,
2013-01-28 12:32:00,69.0,66.0,-100.00,NE,41,14.0,19.0,90,0.01,,,-99.99,280.000000,,2013-01-28 22:32:00,
2013-01-28 12:42:00,69.0,66.0,-100.00,NE,41,14.0,19.0,90,0.01,,,-99.99,280.000000,,2013-01-28 22:42:00,
2013-01-28 13:11:00,70.0,67.0,-100.00,NE,46,15.0,19.0,90,0.00,,,-99.99,384.000000,,2013-01-28 23:11:00,
2013-01-28 13:22:00,70.0,67.0,-100.00,NE,46,15.0,19.0,90,0.00,,,-99.99,384.000000,,2013-01-28 23:22:00,
2013-01-28 13:32:00,70.0,67.0,-100.00,NE,46,15.0,19.0,90,0.00,,,-99.99,384.000000,,2013-01-28 23:32:00,
2013-01-28 13:41:00,70.0,67.0,-100.00,NE,46,15.0,19.0,90,0.00,,,-99.99,384.000000,,2013-01-28 23:41:00,
2013-01-28 14:12:00,70.0,68.0,-100.00,NNE,28,9.0,17.0,92,0.03,,,-99.99,340.000000,,2013-01-29 00:12:00,
2013-01-28 14:22:00,70.0,68.0,-100.00,NNE,28,9.0,17.0,92,0.03,,,-99.99,340.000000,,2013-01-29 00:22:00,
2013-01-28 14:32:00,70.0,68.0,-100.00,NNE,28,9.0,17.0,92,0.03,,,-99.99,340.000000,,2013-01-29 00:32:00,
2013-01-28 14:41:00,70.0,68.0,-100.00,NNE,28,9.0,17.0,92,0.03,,,-99.99,340.000000,,2013-01-29 00:41:00,
2013-01-28 15:11:00,71.0,68.0,-100.00,NE,50,12.0,17.0,90,0.04,,,-99.99,161.000000,,2013-01-29 01:11:00,
2013-01-28 15:22:00,71.0,68.0,-100.00,NE,50,12.0,17.0,90,0.04,,,-99.99,161.000000,,2013-01-29 01:22:00,
2013-01-28 15:32:00,71.0,68.0,-100.00,NE,50,12.0,17.0,90,0.04,,,-99.99,161.000000,,2013-01-29 01:32:00,
2013-01-28 15:42:00,71.0,68.0,-100.00,NE,50,12.0,17.0,90,0.04,,,-99.99,161.000000,,2013-01-29 01:42:00,
2013-01-28 16:11:00,70.0,68.0,-100.00,NE,40,11.0,17.0,92,0.32,,,-99.99,77.000000,,2013-01-29 02:11:00,
2013-01-28 16:21:00,70.0,68.0,-100.00,NE,40,11.0,17.0,92,0.32,,,-99.99,77.000000,,2013-01-29 02:21:00,
2013-01-28 16:32:00,70.0,68.0,-100.00,NE,40,11.0,17.0,92,0.32,,,-99.99,77.000000,,2013-01-29 02:32:00,
2013-01-28 16:41:00,70.0,68.0,-100.00,NE,40,11.0,17.0,92,0.32,,,-99.99,77.000000,,2013-01-29 02:41:00,
2013-01-28 17:11:00,68.0,66.0,-100.00,West,270,4.0,11.0,94,0.38,,,-99.99,48.000000,,2013-01-29 03:11:00,
2013-01-28 17:21:00,68.0,66.0,-100.00,West,270,4.0,11.0,94,0.38,,,-99.99,48.000000,,2013-01-29 03:21:00,
2013-01-28 17:31:00,68.0,66.0,-100.00,West,270,4.0,11.0,94,0.38,,,-99.99,48.000000,,2013-01-29 03:31:00,
2013-01-28 17:41:00,68.0,66.0,-100.00,West,270,4.0,11.0,94,0.38,,,-99.99,48.000000,,2013-01-29 03:41:00,
2013-01-28 18:02:00,69.0,68.0,-100.00,NE,43,4.0,9.0,95,0.10,,,-99.99,58.000000,,2013-01-29 04:02:00,
2013-01-28 18:11:00,69.0,68.0,-100.00,NE,43,4.0,9.0,95,0.10,,,-99.99,58.000000,,2013-01-29 04:11:00,
2013-01-28 18:21:00,69.0,68.0,-100.00,NE,43,4.0,9.0,95,0.10,,,-99.99,58.000000,,2013-01-29 04:21:00,
2013-01-28 18:32:00,69.0,68.0,-100.00,NE,43,4.0,9.0,95,0.10,,,-99.99,58.000000,,2013-01-29 04:32:00,
2013-01-28 18:41:00,69.0,68.0,-100.00,NE,43,4.0,9.0,95,0.10,,,-99.99,58.000000,,2013-01-29 04:41:00,
2013-01-28 19:12:00,69.0,68.0,-100.00,South,174,5.0,7.0,95,0.04,,,-99.99,15.000000,,2013-01-29 05:12:00,
2013-01-28 19:21:00,69.0,68.0,-100.00,South,174,5.0,7.0,95,0.04,,,-99.99,15.000000,,2013-01-29 05:21:00,
2013-01-28 19:32:00,69.0,68.0,-100.00,South,174,5.0,7.0,95,0.04,,,-99.99,15.000000,,2013-01-29 05:32:00,
2013-01-28 19:42:00,69.0,68.0,-100.00,South,174,5.0,7.0,95,0.04,,,-99.99,15.000000,,2013-01-29 05:42:00,
2013-01-28 20:11:00,69.0,68.0,-100.00,SSW,193,2.0,6.0,95,0.00,,,-99.99,0.000000,,2013-01-29 06:11:00,
2013-01-28 20:21:00,69.0,68.0,-100.00,SSW,193,2.0,6.0,95,0.00,,,-99.99,0.000000,,2013-01-29 06:21:00,
2013-01-28 20:31:00,69.0,68.0,-100.00,SSW,193,2.0,6.0,95,0.00,,,-99.99,0.000000,,2013-01-29 06:31:00,
2013-01-28 20:41:00,69.0,68.0,-100.00,SSW,193,2.0,6.0,95,0.00,,,-99.99,0.000000,,2013-01-29 06:41:00,
2013-01-28 21:11:00,68.0,67.0,-100.00,South,169,4.0,6.0,95,0.00,,,2.10,0.000000,,2013-01-29 07:11:00,
2013-01-28 21:21:00,68.0,67.0,-100.00,South,169,4.0,6.0,95,0.00,,,2.10,0.000000,,2013-01-29 07:21:00,
2013-01-28 21:31:00,68.0,67.0,-100.00,South,169,4.0,6.0,95,0.00,,,2.10,0.000000,,2013-01-29 07:31:00,
2013-01-28 21:41:00,68.0,67.0,-100.00,South,169,4.0,6.0,95,0.00,,,2.10,0.000000,,2013-01-29 07:41:00,
2013-01-28 22:11:00,67.0,66.0,-100.00,SSE,153,4.0,6.0,95,0.00,,,2.04,0.000000,,2013-01-29 08:11:00,
2013-01-28 22:21:00,67.0,66.0,-100.00,SSE,153,4.0,6.0,95,0.00,,,2.04,0.000000,,2013-01-29 08:21:00,
2013-01-28 22:31:00,67.0,66.0,-100.00,SSE,153,4.0,6.0,95,0.00,,,2.04,0.000000,,2013-01-29 08:31:00,
2013-01-28 22:41:00,67.0,66.0,-100.00,SSE,153,4.0,6.0,95,0.00,,,2.04,0.000000,,2013-01-29 08:41:00,
2013-01-28 23:01:00,67.0,66.0,-100.00,ENE,72,1.0,5.0,96,0.00,,,1.92,0.000000,,2013-01-29 09:01:00,
2013-01-28 23:11:00,67.0,66.0,-100.00,ENE,72,1.0,5.0,96,0.00,,,1.92,0.000000,,2013-01-29 09:11:00,
2013-01-28 23:21:00,67.0,66.0,-100.00,ENE,72,1.0,5.0,96,0.00,,,1.92,0.000000,,2013-01-29 09:21:00,
2013-01-28 23:31:00,67.0,66.0,-100.00,ENE,72,1.0,5.0,96,0.00,,,1.92,0.000000,,2013-01-29 09:31:00,
2013-01-28 23:42:00,67.0,66.0,-100.00,ENE,72,1.0,5.0,96,0.00,,,1.92,0.000000,,2013-01-29 09:42:00,